sensor_id;sensor_type;location;lat;lon;timestamp;pressure;altitude;pressure_sealevel;temperature;humidity
28181;BME280;15464;50.988;10.318;2023-03-03T00:00:04;99482.50;;;-0.01;100.00
28181;BME280;15464;50.988;10.318;2023-03-03T00:02:31;99476.31;;;0.02;100.00
28181;BME280;15464;50.988;10.318;2023-03-03T00:04:58;99473.72;;;0.02;100.00
28181;BME280;15464;50.988;10.318;2023-03-03T00:07:25;99476.97;;;0.09;100.00
28181;BME280;15464;50.988;10.318;2023-03-03T00:09:52;99478.47;;;0.16;100.00
28181;BME280;15464;50.988;10.318;2023-03-03T00:12:23;99472.44;;;0.14;100.00
28181;BME280;15464;50.988;10.318;2023-03-03T00:14:50;99468.94;;;0.15;100.00
28181;BME280;15464;50.988;10.318;2023-03-03T00:17:22;99476.66;;;0.18;100.00
28181;BME280;15464;50.988;10.318;2023-03-03T00:19:50;99476.69;;;0.16;100.00
28181;BME280;15464;50.988;10.318;2023-03-03T00:22:34;99477.38;;;0.21;100.00
28181;BME280;15464;50.988;10.318;2023-03-03T00:25:28;99471.22;;;0.24;100.00
28181;BME280;15464;50.988;10.318;2023-03-03T00:30:45;99460.44;;;0.33;100.00
28181;BME280;15464;50.988;10.318;2023-03-03T00:33:25;99461.91;;;0.17;100.00
28181;BME280;15464;50.988;10.318;2023-03-03T00:35:55;99462.72;;;0.19;100.00
28181;BME280;15464;50.988;10.318;2023-03-03T00:38:23;99474.72;;;0.23;100.00
28181;BME280;15464;50.988;10.318;2023-03-03T00:40:50;99472.94;;;0.25;100.00
28181;BME280;15464;50.988;10.318;2023-03-03T00:45:53;99469.59;;;0.20;100.00
28181;BME280;15464;50.988;10.318;2023-03-03T00:50:51;99479.72;;;0.29;100.00
28181;BME280;15464;50.988;10.318;2023-03-03T00:53:20;99479.72;;;0.29;100.00
28181;BME280;15464;50.988;10.318;2023-03-03T00:55:49;99493.69;;;0.28;100.00
28181;BME280;15464;50.988;10.318;2023-03-03T00:58:17;99495.59;;;0.23;100.00
28181;BME280;15464;50.988;10.318;2023-03-03T01:00:44;99494.56;;;0.27;100.00
28181;BME280;15464;50.988;10.318;2023-03-03T01:03:17;99493.81;;;0.25;100.00
28181;BME280;15464;50.988;10.318;2023-03-03T01:05:44;99491.25;;;0.23;100.00
28181;BME280;15464;50.988;10.318;2023-03-03T01:08:11;99493.91;;;0.22;100.00
28181;BME280;15464;50.988;10.318;2023-03-03T01:10:41;99493.91;;;0.22;100.00
28181;BME280;15464;50.988;10.318;2023-03-03T01:13:09;99488.59;;;0.25;100.00
28181;BME280;15464;50.988;10.318;2023-03-03T01:15:38;99490.03;;;0.32;100.00
28181;BME280;15464;50.988;10.318;2023-03-03T01:18:06;99487.66;;;0.26;100.00
28181;BME280;15464;50.988;10.318;2023-03-03T01:20:33;99485.91;;;0.26;100.00
28181;BME280;15464;50.988;10.318;2023-03-03T01:23:00;99484.84;;;0.32;100.00
28181;BME280;15464;50.988;10.318;2023-03-03T01:25:26;99483.03;;;0.34;100.00
28181;BME280;15464;50.988;10.318;2023-03-03T01:27:53;99476.66;;;0.18;100.00
28181;BME280;15464;50.988;10.318;2023-03-03T01:30:20;99480.75;;;0.25;100.00
28181;BME280;15464;50.988;10.318;2023-03-03T01:32:47;99476.53;;;0.21;100.00
28181;BME280;15464;50.988;10.318;2023-03-03T01:35:14;99479.81;;;0.26;100.00
28181;BME280;15464;50.988;10.318;2023-03-03T01:37:41;99473.94;;;0.21;100.00
28181;BME280;15464;50.988;10.318;2023-03-03T01:40:19;99472.09;;;0.24;100.00
28181;BME280;15464;50.988;10.318;2023-03-03T01:42:46;99477.38;;;0.21;100.00
28181;BME280;15464;50.988;10.318;2023-03-03T01:45:30;99476.75;;;0.15;100.00
28181;BME280;15464;50.988;10.318;2023-03-03T01:48:02;99474.94;;;0.17;100.00
28181;BME280;15464;50.988;10.318;2023-03-03T01:50:51;99476.75;;;0.15;100.00
28181;BME280;15464;50.988;10.318;2023-03-03T01:53:37;99486.97;;;0.21;100.00
28181;BME280;15464;50.988;10.318;2023-03-03T01:56:06;99481.78;;;0.19;100.00
28181;BME280;15464;50.988;10.318;2023-03-03T01:58:34;99487.41;;;0.09;100.00
28181;BME280;15464;50.988;10.318;2023-03-03T02:01:06;99482.09;;;0.12;100.00
28181;BME280;15464;50.988;10.318;2023-03-03T02:03:34;99476.75;;;0.15;100.00
28181;BME280;15464;50.988;10.318;2023-03-03T02:06:12;99493.25;;;0.15;100.00
28181;BME280;15464;50.988;10.318;2023-03-03T02:08:46;99494.31;;;0.10;100.00
28181;BME280;15464;50.988;10.318;2023-03-03T02:11:17;99494.56;;;0.02;100.00
28181;BME280;15464;50.988;10.318;2023-03-03T02:13:44;99497.34;;;-0.03;100.00
28181;BME280;15464;50.988;10.318;2023-03-03T02:16:11;99485.25;;;-0.05;100.00
28181;BME280;15464;50.988;10.318;2023-03-03T02:18:38;99479.94;;;-0.02;100.00
28181;BME280;15464;50.988;10.318;2023-03-03T02:21:15;99478.16;;;0.00;100.00
28181;BME280;15464;50.988;10.318;2023-03-03T02:23:59;99477.19;;;0.03;100.00
28181;BME280;15464;50.988;10.318;2023-03-03T02:26:31;99479.75;;;0.04;100.00
28181;BME280;15464;50.988;10.318;2023-03-03T02:28:59;99482.81;;;0.15;100.00
28181;BME280;15464;50.988;10.318;2023-03-03T02:31:28;99486.44;;;0.11;100.00
28181;BME280;15464;50.988;10.318;2023-03-03T02:33:55;99477.34;;;-0.02;100.00
28181;BME280;15464;50.988;10.318;2023-03-03T02:41:45;99479.25;;;-0.07;100.00
28181;BME280;15464;50.988;10.318;2023-03-03T02:44:17;99480.88;;;-0.05;100.00
28181;BME280;15464;50.988;10.318;2023-03-03T02:46:46;99472.22;;;-0.05;100.00
28181;BME280;15464;50.988;10.318;2023-03-03T02:49:15;99473.75;;;0.00;100.00
28181;BME280;15464;50.988;10.318;2023-03-03T02:51:42;99471.44;;;-0.07;100.00
28181;BME280;15464;50.988;10.318;2023-03-03T02:54:11;99463.31;;;0.00;100.00
28181;BME280;15464;50.988;10.318;2023-03-03T02:56:38;99461.53;;;0.03;100.00
28181;BME280;15464;50.988;10.318;2023-03-03T02:59:06;99463.13;;;0.07;100.00
28181;BME280;15464;50.988;10.318;2023-03-03T03:01:33;99469.53;;;-0.02;100.00
28181;BME280;15464;50.988;10.318;2023-03-03T03:04:23;99468.66;;;-0.03;100.00
28181;BME280;15464;50.988;10.318;2023-03-03T03:06:52;99479.06;;;-0.01;100.00
28181;BME280;15464;50.988;10.318;2023-03-03T03:09:20;99475.59;;;-0.02;100.00
28181;BME280;15464;50.988;10.318;2023-03-03T03:11:47;99469.47;;;-0.01;100.00
28181;BME280;15464;50.988;10.318;2023-03-03T03:14:14;99479.09;;;-0.03;100.00
28181;BME280;15464;50.988;10.318;2023-03-03T03:16:40;99488.66;;;-0.03;100.00
28181;BME280;15464;50.988;10.318;2023-03-03T03:19:08;99483.53;;;-0.06;100.00
28181;BME280;15464;50.988;10.318;2023-03-03T03:21:34;99481.91;;;-0.09;100.00
28181;BME280;15464;50.988;10.318;2023-03-03T03:24:01;99480.16;;;-0.08;100.00
28181;BME280;15464;50.988;10.318;2023-03-03T03:26:28;99480.88;;;-0.05;100.00
28181;BME280;15464;50.988;10.318;2023-03-03T03:28:55;99489.53;;;-0.03;100.00
28181;BME280;15464;50.988;10.318;2023-03-03T03:31:22;99486.16;;;-0.06;100.00
28181;BME280;15464;50.988;10.318;2023-03-03T03:33:49;99481.78;;;-0.06;100.00
28181;BME280;15464;50.988;10.318;2023-03-03T03:36:16;99483.66;;;-0.09;100.00
28181;BME280;15464;50.988;10.318;2023-03-03T03:38:43;99489.72;;;-0.09;100.00
28181;BME280;15464;50.988;10.318;2023-03-03T03:41:11;99503.19;;;-0.21;100.00
28181;BME280;15464;50.988;10.318;2023-03-03T03:43:38;99490.91;;;-0.19;100.00
28181;BME280;15464;50.988;10.318;2023-03-03T03:46:05;99500.44;;;-0.18;100.00
28181;BME280;15464;50.988;10.318;2023-03-03T03:48:32;99495.34;;;-0.21;100.00
28181;BME280;15464;50.988;10.318;2023-03-03T03:50:58;99495.22;;;-0.18;100.00
28181;BME280;15464;50.988;10.318;2023-03-03T03:53:25;99491.53;;;-0.11;100.00
28181;BME280;15464;50.988;10.318;2023-03-03T03:55:52;99492.06;;;-0.26;100.00
28181;BME280;15464;50.988;10.318;2023-03-03T03:58:19;99499.06;;;-0.28;100.00
28181;BME280;15464;50.988;10.318;2023-03-03T04:00:46;99502.88;;;-0.38;100.00
28181;BME280;15464;50.988;10.318;2023-03-03T04:03:13;99496.59;;;-0.32;100.00
28181;BME280;15464;50.988;10.318;2023-03-03T04:05:40;99502.69;;;-0.32;100.00
28181;BME280;15464;50.988;10.318;2023-03-03T04:08:07;99496.66;;;-0.34;100.00
28181;BME280;15464;50.988;10.318;2023-03-03T04:10:34;99488.63;;;-0.28;100.00
28181;BME280;15464;50.988;10.318;2023-03-03T04:13:01;99484.31;;;-0.29;100.00
28181;BME280;15464;50.988;10.318;2023-03-03T04:15:28;99491.25;;;-0.28;100.00
28181;BME280;15464;50.988;10.318;2023-03-03T04:17:55;99489.44;;;-0.26;100.00
28181;BME280;15464;50.988;10.318;2023-03-03T04:20:21;99493.53;;;-0.19;100.00
28181;BME280;15464;50.988;10.318;2023-03-03T04:22:48;99487.56;;;-0.22;100.00
28181;BME280;15464;50.988;10.318;2023-03-03T04:25:16;99490.13;;;-0.21;100.00
28181;BME280;15464;50.988;10.318;2023-03-03T04:27:43;99495.56;;;-0.27;100.00
28181;BME280;15464;50.988;10.318;2023-03-03T04:30:12;99507.78;;;-0.29;100.00
28181;BME280;15464;50.988;10.318;2023-03-03T04:32:40;99507.06;;;-0.34;100.00
28181;BME280;15464;50.988;10.318;2023-03-03T04:35:07;99509.00;;;-0.39;100.00
28181;BME280;15464;50.988;10.318;2023-03-03T04:37:34;99504.88;;;-0.46;100.00
28181;BME280;15464;50.988;10.318;2023-03-03T04:40:03;99510.91;;;-0.44;100.00
28181;BME280;15464;50.988;10.318;2023-03-03T04:42:31;99512.06;;;-0.54;100.00
28181;BME280;15464;50.988;10.318;2023-03-03T04:44:57;99519.66;;;-0.47;100.00
28181;BME280;15464;50.988;10.318;2023-03-03T04:47:24;99518.78;;;-0.47;100.00
28181;BME280;15464;50.988;10.318;2023-03-03T04:49:51;99516.03;;;-0.43;100.00
28181;BME280;15464;50.988;10.318;2023-03-03T04:52:18;99515.19;;;-0.43;100.00
28181;BME280;15464;50.988;10.318;2023-03-03T04:54:45;99519.53;;;-0.44;100.00
28181;BME280;15464;50.988;10.318;2023-03-03T04:57:11;99519.66;;;-0.47;100.00
28181;BME280;15464;50.988;10.318;2023-03-03T04:59:38;99522.09;;;-0.42;100.00
28181;BME280;15464;50.988;10.318;2023-03-03T05:02:05;99520.09;;;-0.34;100.00
28181;BME280;15464;50.988;10.318;2023-03-03T05:04:31;99517.53;;;-0.35;100.00
28181;BME280;15464;50.988;10.318;2023-03-03T05:06:58;99523.72;;;-0.38;100.00
28181;BME280;15464;50.988;10.318;2023-03-03T05:09:25;99517.34;;;-0.29;100.00
28181;BME280;15464;50.988;10.318;2023-03-03T05:11:51;99516.69;;;-0.36;100.00
28181;BME280;15464;50.988;10.318;2023-03-03T05:14:19;99507.78;;;-0.29;100.00
28181;BME280;15464;50.988;10.318;2023-03-03T05:16:46;99522.00;;;-0.39;100.00
28181;BME280;15464;50.988;10.318;2023-03-03T05:19:12;99527.97;;;-0.35;100.00
28181;BME280;15464;50.988;10.318;2023-03-03T05:21:39;99528.81;;;-0.35;100.00
28181;BME280;15464;50.988;10.318;2023-03-03T05:24:10;99522.56;;;-0.29;100.00
28181;BME280;15464;50.988;10.318;2023-03-03T05:26:38;99531.34;;;-0.32;100.00
28181;BME280;15464;50.988;10.318;2023-03-03T05:29:06;99534.22;;;-0.41;100.00
28181;BME280;15464;50.988;10.318;2023-03-03T05:31:33;99539.38;;;-0.38;100.00
28181;BME280;15464;50.988;10.318;2023-03-03T05:33:59;99535.16;;;-0.44;100.00
28181;BME280;15464;50.988;10.318;2023-03-03T05:36:26;99532.81;;;-0.51;100.00
28181;BME280;15464;50.988;10.318;2023-03-03T05:38:53;99536.31;;;-0.52;100.00
28181;BME280;15464;50.988;10.318;2023-03-03T05:41:20;99539.44;;;-0.41;100.00
28181;BME280;15464;50.988;10.318;2023-03-03T05:43:47;99541.34;;;-0.46;100.00
28181;BME280;15464;50.988;10.318;2023-03-03T05:46:14;99541.16;;;-0.40;100.00
28181;BME280;15464;50.988;10.318;2023-03-03T05:48:40;99544.47;;;-0.35;100.00
28181;BME280;15464;50.988;10.318;2023-03-03T05:51:07;99551.47;;;-0.37;100.00
28181;BME280;15464;50.988;10.318;2023-03-03T05:53:34;99549.97;;;-0.44;100.00
28181;BME280;15464;50.988;10.318;2023-03-03T05:56:01;99547.22;;;-0.39;100.00
28181;BME280;15464;50.988;10.318;2023-03-03T05:58:27;99552.44;;;-0.39;100.00
28181;BME280;15464;50.988;10.318;2023-03-03T06:00:54;99557.50;;;-0.35;100.00
28181;BME280;15464;50.988;10.318;2023-03-03T06:03:21;99558.41;;;-0.37;100.00
28181;BME280;15464;50.988;10.318;2023-03-03T06:05:48;99561.00;;;-0.36;100.00
28181;BME280;15464;50.988;10.318;2023-03-03T06:08:14;99565.50;;;-0.41;100.00
28181;BME280;15464;50.988;10.318;2023-03-03T06:10:41;99561.09;;;-0.39;100.00
28181;BME280;15464;50.988;10.318;2023-03-03T06:13:08;99570.22;;;-0.54;100.00
28181;BME280;15464;50.988;10.318;2023-03-03T06:15:35;99575.41;;;-0.52;100.00
28181;BME280;15464;50.988;10.318;2023-03-03T06:18:02;99578.34;;;-0.63;100.00
28181;BME280;15464;50.988;10.318;2023-03-03T06:20:28;99575.59;;;-0.58;100.00
28181;BME280;15464;50.988;10.318;2023-03-03T06:22:55;99577.66;;;-0.69;100.00
28181;BME280;15464;50.988;10.318;2023-03-03T06:25:22;99579.47;;;-0.71;100.00
28181;BME280;15464;50.988;10.318;2023-03-03T06:27:48;99577.59;;;-0.68;100.00
28181;BME280;15464;50.988;10.318;2023-03-03T06:30:15;99581.78;;;-0.62;100.00
28181;BME280;15464;50.988;10.318;2023-03-03T06:32:42;99582.78;;;-0.66;100.00
28181;BME280;15464;50.988;10.318;2023-03-03T06:35:09;99579.31;;;-0.67;100.00
28181;BME280;15464;50.988;10.318;2023-03-03T06:37:35;99575.91;;;-0.69;100.00
28181;BME280;15464;50.988;10.318;2023-03-03T06:40:03;99581.94;;;-0.68;100.00
28181;BME280;15464;50.988;10.318;2023-03-03T06:42:30;99590.69;;;-0.69;100.00
28181;BME280;15464;50.988;10.318;2023-03-03T06:44:57;99590.88;;;-0.75;100.00
28181;BME280;15464;50.988;10.318;2023-03-03T06:47:23;99600.34;;;-0.73;100.00
28181;BME280;15464;50.988;10.318;2023-03-03T06:49:50;99601.13;;;-0.69;100.00
28181;BME280;15464;50.988;10.318;2023-03-03T06:52:20;99601.97;;;-0.69;100.00
28181;BME280;15464;50.988;10.318;2023-03-03T06:54:48;99598.88;;;-0.82;100.00
28181;BME280;15464;50.988;10.318;2023-03-03T06:57:21;99602.38;;;-0.83;100.00
28181;BME280;15464;50.988;10.318;2023-03-03T06:59:53;99606.56;;;-0.78;100.00
28181;BME280;15464;50.988;10.318;2023-03-03T07:02:21;99600.47;;;-0.77;100.00
28181;BME280;15464;50.988;10.318;2023-03-03T07:04:47;99605.56;;;-0.74;100.00
28181;BME280;15464;50.988;10.318;2023-03-03T07:07:23;99611.59;;;-0.72;100.00
28181;BME280;15464;50.988;10.318;2023-03-03T07:09:54;99600.47;;;-0.77;100.00
28181;BME280;15464;50.988;10.318;2023-03-03T07:12:25;99600.34;;;-0.73;100.00
28181;BME280;15464;50.988;10.318;2023-03-03T07:15:00;99584.75;;;-0.74;100.00
28181;BME280;15464;50.988;10.318;2023-03-03T07:17:43;99585.50;;;-0.69;100.00
28181;BME280;15464;50.988;10.318;2023-03-03T07:20:18;99586.22;;;-0.66;100.00
28181;BME280;15464;50.988;10.318;2023-03-03T07:22:45;99583.41;;;-0.58;100.00
28181;BME280;15464;50.988;10.318;2023-03-03T07:25:26;99580.88;;;-0.61;100.00
28181;BME280;15464;50.988;10.318;2023-03-03T07:28:10;99594.19;;;-0.70;100.00
28181;BME280;15464;50.988;10.318;2023-03-03T07:30:39;99610.34;;;-0.59;100.00
28181;BME280;15464;50.988;10.318;2023-03-03T07:33:23;99612.28;;;-0.66;100.00
28181;BME280;15464;50.988;10.318;2023-03-03T07:35:53;99613.03;;;-0.62;100.00
28181;BME280;15464;50.988;10.318;2023-03-03T07:38:34;99617.53;;;-0.67;100.00
28181;BME280;15464;50.988;10.318;2023-03-03T07:41:04;99622.00;;;-0.71;100.00
28181;BME280;15464;50.988;10.318;2023-03-03T07:43:37;99627.06;;;-0.66;100.00
28181;BME280;15464;50.988;10.318;2023-03-03T07:46:28;99631.25;;;-0.62;100.00
28181;BME280;15464;50.988;10.318;2023-03-03T07:48:57;99645.28;;;-0.66;100.00
28181;BME280;15464;50.988;10.318;2023-03-03T07:51:28;99644.47;;;-0.68;100.00
28181;BME280;15464;50.988;10.318;2023-03-03T07:54:24;99638.66;;;-0.76;100.00
28181;BME280;15464;50.988;10.318;2023-03-03T08:04:49;99648.38;;;-0.83;100.00
28181;BME280;15464;50.988;10.318;2023-03-03T08:07:19;99648.41;;;-0.85;100.00
28181;BME280;15464;50.988;10.318;2023-03-03T08:09:59;99642.31;;;-0.84;100.00
28181;BME280;15464;50.988;10.318;2023-03-03T08:12:38;99651.84;;;-0.83;100.00
28181;BME280;15464;50.988;10.318;2023-03-03T08:15:30;99661.31;;;-0.80;100.00
28181;BME280;15464;50.988;10.318;2023-03-03T08:18:00;99655.06;;;-0.74;100.00
28181;BME280;15464;50.988;10.318;2023-03-03T08:20:46;99641.94;;;-0.70;100.00
28181;BME280;15464;50.988;10.318;2023-03-03T08:23:14;99640.19;;;-0.69;100.00
28181;BME280;15464;50.988;10.318;2023-03-03T08:25:41;99646.19;;;-0.67;100.00
28181;BME280;15464;50.988;10.318;2023-03-03T08:28:09;99657.13;;;-0.56;100.00
28181;BME280;15464;50.988;10.318;2023-03-03T08:30:37;99666.84;;;-0.61;100.00
28181;BME280;15464;50.988;10.318;2023-03-03T08:33:06;99676.53;;;-0.66;100.00
28181;BME280;15464;50.988;10.318;2023-03-03T08:35:32;99681.97;;;-0.74;100.00
28181;BME280;15464;50.988;10.318;2023-03-03T08:37:59;99693.25;;;-0.73;100.00
28181;BME280;15464;50.988;10.318;2023-03-03T08:40:26;99694.28;;;-0.81;100.00
28181;BME280;15464;50.988;10.318;2023-03-03T08:42:53;99698.88;;;-0.89;100.00
28181;BME280;15464;50.988;10.318;2023-03-03T08:45:20;99698.19;;;-0.95;100.00
28181;BME280;15464;50.988;10.318;2023-03-03T08:47:46;99700.69;;;-0.92;100.00
28181;BME280;15464;50.988;10.318;2023-03-03T08:50:13;99697.72;;;-0.78;100.00
28181;BME280;15464;50.988;10.318;2023-03-03T08:52:40;99694.09;;;-0.73;100.00
28181;BME280;15464;50.988;10.318;2023-03-03T08:55:07;99691.16;;;-0.61;100.00
28181;BME280;15464;50.988;10.318;2023-03-03T08:57:34;99679.75;;;-0.57;100.00
28181;BME280;15464;50.988;10.318;2023-03-03T09:00:01;99684.13;;;-0.57;100.00
28181;BME280;15464;50.988;10.318;2023-03-03T09:02:28;99686.06;;;-0.65;100.00
28181;BME280;15464;50.988;10.318;2023-03-03T09:04:54;99688.47;;;-0.58;100.00
28181;BME280;15464;50.988;10.318;2023-03-03T09:07:21;99693.50;;;-0.52;100.00
28181;BME280;15464;50.988;10.318;2023-03-03T09:09:48;99699.78;;;-0.59;100.00
28181;BME280;15464;50.988;10.318;2023-03-03T09:12:35;99703.47;;;-0.67;100.00
28181;BME280;15464;50.988;10.318;2023-03-03T09:15:14;99701.88;;;-0.71;99.83
28181;BME280;15464;50.988;10.318;2023-03-03T09:17:42;99698.34;;;-0.69;99.37
28181;BME280;15464;50.988;10.318;2023-03-03T09:20:33;99700.09;;;-0.69;99.11
28181;BME280;15464;50.988;10.318;2023-03-03T09:23:34;99705.31;;;-0.69;98.02
28181;BME280;15464;50.988;10.318;2023-03-03T09:26:30;99699.13;;;-0.67;97.37
28181;BME280;15464;50.988;10.318;2023-03-03T09:29:23;99712.00;;;-0.62;97.54
28181;BME280;15464;50.988;10.318;2023-03-03T09:31:49;99718.94;;;-0.61;96.81
28181;BME280;15464;50.988;10.318;2023-03-03T09:34:36;99714.44;;;-0.56;97.70
28181;BME280;15464;50.988;10.318;2023-03-03T09:37:32;99714.44;;;-0.56;98.56
28181;BME280;15464;50.988;10.318;2023-03-03T09:43:12;99708.94;;;-0.44;96.89
28181;BME280;15464;50.988;10.318;2023-03-03T09:45:49;99712.34;;;-0.44;97.00
28181;BME280;15464;50.988;10.318;2023-03-03T09:51:09;99711.25;;;-0.35;97.33
28181;BME280;15464;50.988;10.318;2023-03-03T09:59:02;99714.31;;;-0.21;96.59
28181;BME280;15464;50.988;10.318;2023-03-03T10:02:10;99720.56;;;-0.26;95.74
28181;BME280;15464;50.988;10.318;2023-03-03T10:05:11;99717.09;;;-0.27;93.94
28181;BME280;15464;50.988;10.318;2023-03-03T10:13:25;99714.50;;;-0.27;93.97
28181;BME280;15464;50.988;10.318;2023-03-03T10:18:59;99710.19;;;-0.28;94.69
28181;BME280;15464;50.988;10.318;2023-03-03T10:21:33;99716.28;;;-0.29;94.45
28181;BME280;15464;50.988;10.318;2023-03-03T10:30:08;99722.66;;;-0.10;92.97
28181;BME280;15464;50.988;10.318;2023-03-03T10:32:50;99724.09;;;0.00;92.97
28181;BME280;15464;50.988;10.318;2023-03-03T10:40:51;99712.75;;;0.02;93.43
28181;BME280;15464;50.988;10.318;2023-03-03T10:46:06;99717.38;;;-0.07;92.62
28181;BME280;15464;50.988;10.318;2023-03-03T10:48:53;99729.06;;;0.08;94.08
28181;BME280;15464;50.988;10.318;2023-03-03T10:54:32;99729.22;;;0.04;91.10
28181;BME280;15464;50.988;10.318;2023-03-03T10:57:23;99729.28;;;0.00;91.90
28181;BME280;15464;50.988;10.318;2023-03-03T11:13:55;99728.09;;;0.12;89.74
28181;BME280;15464;50.988;10.318;2023-03-03T11:29:51;99707.63;;;0.54;88.44
28181;BME280;15464;50.988;10.318;2023-03-03T11:32:32;99698.81;;;0.57;88.31
28181;BME280;15464;50.988;10.318;2023-03-03T11:37:45;99706.59;;;0.58;87.31
28181;BME280;15464;50.988;10.318;2023-03-03T11:40:19;99707.00;;;0.46;87.39
28181;BME280;15464;50.988;10.318;2023-03-03T11:43:04;99703.22;;;0.56;87.56
28181;BME280;15464;50.988;10.318;2023-03-03T11:45:43;99694.38;;;0.60;86.65
28181;BME280;15464;50.988;10.318;2023-03-03T11:48:21;99694.38;;;0.60;87.09
28181;BME280;15464;50.988;10.318;2023-03-03T11:53:28;99700.00;;;0.74;86.16
28181;BME280;15464;50.988;10.318;2023-03-03T11:56:14;99699.81;;;0.79;86.51
28181;BME280;15464;50.988;10.318;2023-03-03T12:04:26;99695.03;;;0.92;84.83
28181;BME280;15464;50.988;10.318;2023-03-03T12:07:19;99698.97;;;0.78;84.78
28181;BME280;15464;50.988;10.318;2023-03-03T12:13:02;99695.03;;;0.92;84.94
28181;BME280;15464;50.988;10.318;2023-03-03T12:16:00;99694.06;;;0.94;84.52
28181;BME280;15464;50.988;10.318;2023-03-03T12:24:36;99684.38;;;0.98;84.97
28181;BME280;15464;50.988;10.318;2023-03-03T12:27:18;99681.38;;;1.08;84.95
28181;BME280;15464;50.988;10.318;2023-03-03T12:35:40;99671.41;;;0.95;84.90
28181;BME280;15464;50.988;10.318;2023-03-03T12:40:35;99666.53;;;1.10;85.49
28181;BME280;15464;50.988;10.318;2023-03-03T12:45:55;99668.06;;;1.16;83.68
28181;BME280;15464;50.988;10.318;2023-03-03T12:48:39;99667.94;;;1.19;84.01
28181;BME280;15464;50.988;10.318;2023-03-03T12:54:16;99664.41;;;1.20;82.85
28181;BME280;15464;50.988;10.318;2023-03-03T12:56:56;99666.78;;;1.03;83.32
28181;BME280;15464;50.988;10.318;2023-03-03T12:59:39;99659.63;;;1.08;83.51
28181;BME280;15464;50.988;10.318;2023-03-03T13:04:55;99657.06;;;1.31;83.81
28181;BME280;15464;50.988;10.318;2023-03-03T13:12:59;99644.38;;;1.20;83.10
28181;BME280;15464;50.988;10.318;2023-03-03T13:15:29;99647.84;;;1.21;83.29
28181;BME280;15464;50.988;10.318;2023-03-03T13:18:24;99647.03;;;1.19;82.95
28181;BME280;15464;50.988;10.318;2023-03-03T13:21:02;99651.41;;;1.43;82.10
28181;BME280;15464;50.988;10.318;2023-03-03T13:26:34;99642.72;;;1.65;82.22
28181;BME280;15464;50.988;10.318;2023-03-03T13:29:26;99654.22;;;1.60;80.54
28181;BME280;15464;50.988;10.318;2023-03-03T13:32:19;99648.88;;;1.63;80.94
28181;BME280;15464;50.988;10.318;2023-03-03T13:40:16;99649.00;;;1.82;80.90
28181;BME280;15464;50.988;10.318;2023-03-03T13:43:09;99646.47;;;1.81;78.86
28181;BME280;15464;50.988;10.318;2023-03-03T13:51:07;99644.16;;;1.73;79.53
28181;BME280;15464;50.988;10.318;2023-03-03T13:54:06;99636.25;;;1.75;79.87
28181;BME280;15464;50.988;10.318;2023-03-03T13:59:35;99630.50;;;1.65;80.22
28181;BME280;15464;50.988;10.318;2023-03-03T14:02:40;99627.13;;;1.85;79.22
28181;BME280;15464;50.988;10.318;2023-03-03T14:05:55;99615.13;;;2.01;79.90
28181;BME280;15464;50.988;10.318;2023-03-03T14:08:05;99620.78;;;2.34;79.56
28181;BME280;15464;50.988;10.318;2023-03-03T14:10:39;99618.06;;;2.77;79.11
28181;BME280;15464;50.988;10.318;2023-03-03T14:13:12;99617.53;;;2.69;76.04
28181;BME280;15464;50.988;10.318;2023-03-03T14:18:29;99621.38;;;2.19;77.63
28181;BME280;15464;50.988;10.318;2023-03-03T14:26:09;99616.66;;;2.69;76.61
28181;BME280;15464;50.988;10.318;2023-03-03T14:28:47;99619.31;;;2.49;76.35
28181;BME280;15464;50.988;10.318;2023-03-03T14:31:16;99611.28;;;2.31;76.72
28181;BME280;15464;50.988;10.318;2023-03-03T14:34:14;99605.13;;;2.32;76.94
28181;BME280;15464;50.988;10.318;2023-03-03T14:37:44;99599.66;;;2.79;76.19
28181;BME280;15464;50.988;10.318;2023-03-03T14:39:50;99605.81;;;2.78;76.51
28181;BME280;15464;50.988;10.318;2023-03-03T14:45:18;99589.06;;;3.40;77.22
28181;BME280;15464;50.988;10.318;2023-03-03T14:47:56;99581.25;;;3.57;74.13
28181;BME280;15464;50.988;10.318;2023-03-03T14:50:38;99584.09;;;3.52;71.11
28181;BME280;15464;50.988;10.318;2023-03-03T14:55:46;99578.00;;;3.52;72.64
28181;BME280;15464;50.988;10.318;2023-03-03T14:58:29;99573.19;;;3.05;73.89
28181;BME280;15464;50.988;10.318;2023-03-03T15:01:20;99569.56;;;3.27;74.81
28181;BME280;15464;50.988;10.318;2023-03-03T15:06:44;99560.69;;;3.67;71.98
28181;BME280;15464;50.988;10.318;2023-03-03T15:09:39;99554.41;;;3.52;71.11
28181;BME280;15464;50.988;10.318;2023-03-03T15:15:09;99551.50;;;3.20;72.99
28181;BME280;15464;50.988;10.318;2023-03-03T15:24:24;99554.03;;;3.03;73.17
28181;BME280;15464;50.988;10.318;2023-03-03T15:26:43;99557.31;;;3.46;74.27
28181;BME280;15464;50.988;10.318;2023-03-03T15:29:38;99548.13;;;3.37;73.14
28181;BME280;15464;50.988;10.318;2023-03-03T15:32:32;99551.63;;;2.99;72.88
28181;BME280;15464;50.988;10.318;2023-03-03T15:35:21;99548.19;;;3.36;75.46
28181;BME280;15464;50.988;10.318;2023-03-03T15:38:52;99550.47;;;3.43;72.65
28181;BME280;15464;50.988;10.318;2023-03-03T15:41:07;99547.97;;;3.21;72.17
28181;BME280;15464;50.988;10.318;2023-03-03T15:47:10;99535.53;;;3.06;73.13
28181;BME280;15464;50.988;10.318;2023-03-03T16:04:03;99547.28;;;2.79;73.46
28181;BME280;15464;50.988;10.318;2023-03-03T16:06:47;99545.53;;;2.98;73.42
28181;BME280;15464;50.988;10.318;2023-03-03T16:09:37;99539.72;;;2.92;73.26
28181;BME280;15464;50.988;10.318;2023-03-03T16:14:38;99545.03;;;2.70;75.46
28181;BME280;15464;50.988;10.318;2023-03-03T16:17:23;99548.66;;;2.47;75.31
28181;BME280;15464;50.988;10.318;2023-03-03T16:30:40;99567.63;;;1.90;78.11
28181;BME280;15464;50.988;10.318;2023-03-03T16:33:23;99572.13;;;2.08;78.05
28181;BME280;15464;50.988;10.318;2023-03-03T16:38:25;99575.59;;;2.09;77.83
28181;BME280;15464;50.988;10.318;2023-03-03T16:40:57;99582.72;;;2.05;77.72